createdAt,value
2018-06-22T00:02:11.846Z,68.27
2018-06-22T00:05:05.085Z,67.82
2018-06-22T00:07:33.617Z,68.40
2018-06-22T00:10:03.965Z,68.87
2018-06-22T00:12:32.480Z,68.52
2018-06-22T00:16:05.848Z,68.93
2018-06-22T00:18:37.518Z,68.26
2018-06-22T00:21:23.094Z,68.09
2018-06-22T00:28:43.298Z,68.61
2018-06-22T00:31:12.036Z,68.46
2018-06-22T00:33:42.801Z,68.43
2018-06-22T00:36:12.089Z,69.03
2018-06-22T00:38:41.608Z,68.18
2018-06-22T00:41:14.139Z,68.69
2018-06-22T00:43:44.166Z,68.76
2018-06-22T00:46:14.249Z,68.03
2018-06-22T00:48:44.473Z,67.96
2018-06-22T00:51:16.681Z,67.61
2018-06-22T00:53:58.167Z,67.01
2018-06-22T00:56:28.034Z,68.55
2018-06-22T00:58:56.632Z,68.13
2018-06-22T01:01:27.727Z,67.80
2018-06-22T01:03:56.616Z,67.22
2018-06-22T01:06:29.558Z,67.59
2018-06-22T01:08:59.460Z,67.27
2018-06-22T01:11:28.197Z,67.57
2018-06-22T01:13:57.898Z,67.23
2018-06-22T01:16:36.856Z,67.33
2018-06-22T01:19:06.607Z,66.62
2018-06-22T01:21:39.705Z,66.12
2018-06-22T01:24:09.149Z,66.45
2018-06-22T01:26:39.955Z,67.35
2018-06-22T01:29:30.420Z,67.06
2018-06-22T01:32:01.576Z,66.59
2018-06-22T01:34:30.392Z,66.13
2018-06-22T01:37:00.100Z,66.60
2018-06-22T01:39:28.673Z,66.81
2018-06-22T01:42:00.206Z,66.75
2018-06-22T01:44:28.753Z,66.49
2018-06-22T01:46:58.603Z,66.26
2018-06-22T01:49:27.428Z,67.42
2018-06-22T01:51:56.046Z,66.83
2018-06-22T01:54:24.816Z,66.65
2018-06-22T01:56:53.887Z,65.71
2018-06-22T01:59:22.447Z,66.66
2018-06-22T02:01:52.018Z,66.48
2018-06-22T02:04:24.469Z,66.17
2018-06-22T02:06:53.261Z,66.22
2018-06-22T02:09:27.093Z,66.35
2018-06-22T02:11:58.198Z,65.56
2018-06-22T02:14:26.948Z,65.85
2018-06-22T02:16:55.966Z,65.86
2018-06-22T02:19:25.061Z,65.64
2018-06-22T02:21:54.211Z,65.25
2018-06-22T02:24:23.669Z,64.81
2018-06-22T02:26:53.191Z,65.54
2018-06-22T02:29:21.948Z,66.02
2018-06-22T02:31:50.696Z,65.47
2018-06-22T02:34:20.669Z,65.50
2018-06-22T02:36:51.324Z,64.50
2018-06-22T02:39:20.204Z,64.81
2018-06-22T02:41:50.309Z,64.09
2018-06-22T02:44:19.732Z,63.41
2018-06-22T02:46:49.092Z,64.32
2018-06-22T02:49:18.490Z,63.60
2018-06-22T02:51:52.904Z,65.00
2018-06-22T02:54:21.424Z,64.88
2018-06-22T02:56:53.933Z,64.61
2018-06-22T02:59:25.354Z,63.30
2018-06-22T03:01:54.604Z,64.82
2018-06-22T03:04:24.059Z,66.15
2018-06-22T03:07:02.868Z,65.31
2018-06-22T03:09:31.987Z,64.98
2018-06-22T03:12:02.868Z,65.24
2018-06-22T03:14:33.018Z,65.24
2018-06-22T03:17:01.846Z,65.42
2018-06-22T03:19:34.124Z,64.55
2018-06-22T03:22:03.132Z,65.27
2018-06-22T03:24:32.515Z,66.18
2018-06-22T03:27:01.370Z,64.98
2018-06-22T03:29:31.184Z,64.28
2018-06-22T03:32:00.136Z,64.62
2018-06-22T03:34:28.943Z,64.68
2018-06-22T03:36:57.861Z,65.04
2018-06-22T03:39:26.551Z,65.32
2018-06-22T03:41:55.342Z,65.27
2018-06-22T03:44:23.922Z,66.19
2018-06-22T03:46:53.591Z,66.03
2018-06-22T03:49:22.104Z,64.89
2018-06-22T03:51:50.579Z,65.32
2018-06-22T03:54:21.837Z,66.08
2018-06-22T03:56:50.438Z,66.22
2018-06-22T03:59:19.588Z,65.04
2018-06-22T04:01:51.199Z,65.73
2018-06-22T04:04:20.035Z,65.86
2018-06-22T04:06:48.922Z,66.37
2018-06-22T04:09:18.097Z,65.83
2018-06-22T04:11:47.365Z,66.80
2018-06-22T04:14:15.903Z,66.72
2018-06-22T04:16:46.026Z,66.05
2018-06-22T04:19:14.590Z,66.67
2018-06-22T04:21:43.074Z,68.11
2018-06-22T04:24:17.087Z,66.97
2018-06-22T04:26:47.414Z,64.84
2018-06-22T04:29:17.877Z,64.66
2018-06-22T04:31:48.586Z,64.77
2018-06-22T04:34:18.397Z,64.76
2018-06-22T04:36:46.958Z,65.01
2018-06-22T04:39:15.737Z,65.89
2018-06-22T04:41:44.706Z,64.52
2018-06-22T04:44:13.207Z,64.84
2018-06-22T04:46:43.038Z,64.14
2018-06-22T04:49:11.619Z,64.21
2018-06-22T04:51:40.255Z,64.30
2018-06-22T04:54:09.649Z,64.42
2018-06-22T04:56:39.088Z,65.40
2018-06-22T04:59:07.579Z,65.02
2018-06-22T05:01:36.028Z,65.79
2018-06-22T05:04:04.701Z,64.91
2018-06-22T05:06:33.340Z,65.77
2018-06-22T05:09:02.617Z,66.23
2018-06-22T05:11:31.099Z,65.73
2018-06-22T05:14:00.240Z,65.67
2018-06-22T05:16:28.937Z,65.92
2018-06-22T05:18:58.253Z,65.68
2018-06-22T05:21:28.989Z,65.19
2018-06-22T05:24:01.097Z,65.47
2018-06-22T05:26:30.858Z,64.32
2018-06-22T05:29:03.243Z,65.26
2018-06-22T05:31:35.055Z,65.25
2018-06-22T05:34:07.633Z,64.22
2018-06-22T05:36:36.380Z,65.15
2018-06-22T05:39:09.381Z,65.87
2018-06-22T05:41:38.212Z,64.30
2018-06-22T05:44:07.193Z,65.54
2018-06-22T05:46:36.016Z,66.40
2018-06-22T05:49:04.591Z,67.44
2018-06-22T05:51:35.397Z,67.24
2018-06-22T05:54:03.892Z,66.56
2018-06-22T05:56:35.728Z,67.51
2018-06-22T05:59:04.952Z,67.11
2018-06-22T06:01:35.084Z,67.44
2018-06-22T06:04:03.650Z,67.19
2018-06-22T06:06:32.286Z,67.54
2018-06-22T06:09:00.990Z,67.96
2018-06-22T06:11:29.462Z,68.25
2018-06-22T06:13:58.616Z,68.32
2018-06-22T06:16:34.453Z,68.88
2018-06-22T06:19:06.235Z,69.08
2018-06-22T06:21:36.022Z,69.64
2018-06-22T06:24:07.921Z,71.38
2018-06-22T06:26:38.048Z,70.79
2018-06-22T06:29:07.335Z,70.45
2018-06-22T06:31:36.512Z,71.34
2018-06-22T06:34:11.957Z,71.89
2018-06-22T06:36:41.260Z,73.71
2018-06-22T06:39:14.833Z,73.74
2018-06-22T06:41:44.559Z,74.70
2018-06-22T06:44:20.065Z,75.34
2018-06-22T06:46:52.394Z,76.59
2018-06-22T06:49:29.006Z,76.50
2018-06-22T06:52:12.090Z,76.59
2018-06-22T06:54:45.526Z,77.29
2018-06-22T06:57:17.472Z,77.83
2018-06-22T07:02:33.253Z,76.53
2018-06-22T07:05:14.241Z,76.51
2018-06-22T07:07:52.362Z,76.89
2018-06-22T07:10:22.640Z,77.03
2018-06-22T07:15:55.212Z,76.97
2018-06-22T07:18:33.299Z,78.84
2018-06-22T07:21:12.990Z,79.38
2018-06-22T07:23:52.088Z,77.99
2018-06-22T07:26:24.611Z,78.83
2018-06-22T07:29:05.892Z,77.47
2018-06-22T07:31:45.303Z,76.78
2018-06-22T07:34:25.997Z,77.84
2018-06-22T07:37:36.056Z,77.26
2018-06-22T07:40:26.014Z,78.12
2018-06-22T07:46:12.472Z,79.01
2018-06-22T07:49:03.297Z,80.26
2018-06-22T07:51:47.578Z,79.23
2018-06-22T07:57:41.421Z,76.29
2018-06-22T08:00:16.197Z,76.87
2018-06-22T08:02:50.842Z,77.08
2018-06-22T08:05:41.622Z,76.84
2018-06-22T08:08:22.635Z,76.31
2018-06-22T08:10:56.802Z,78.02
2018-06-22T08:18:39.879Z,76.93
2018-06-22T08:24:13.720Z,77.10
2018-06-22T08:30:20.299Z,76.59
2018-06-22T08:35:37.068Z,77.49
2018-06-22T08:40:56.075Z,76.50
2018-06-22T08:43:40.938Z,75.69
2018-06-22T08:49:20.413Z,77.59
2018-06-22T08:52:05.026Z,78.45
2018-06-22T08:57:30.140Z,76.81
2018-06-22T09:00:16.960Z,78.01
2018-06-22T09:02:51.558Z,76.34
2018-06-22T09:05:30.243Z,76.76
2018-06-22T09:08:08.566Z,76.17
2018-06-22T09:11:00.683Z,76.43
2018-06-22T09:13:52.001Z,75.29
2018-06-22T09:22:07.403Z,73.74
2018-06-22T09:24:46.478Z,76.09
2018-06-22T09:27:28.502Z,76.27
2018-06-22T09:30:06.522Z,76.69
2018-06-22T09:32:37.704Z,75.51
2018-06-22T09:35:47.129Z,75.68
2018-06-22T09:38:25.716Z,74.58
2018-06-22T09:41:06.994Z,73.64
2018-06-22T09:43:49.192Z,72.52
2018-06-22T09:46:41.088Z,72.18
2018-06-22T09:52:06.504Z,72.23
2018-06-22T09:54:48.956Z,72.16
2018-06-22T10:00:31.133Z,71.89
2018-06-22T10:03:09.369Z,72.04
2018-06-22T10:05:54.387Z,74.35
2018-06-22T10:08:40.222Z,70.75
2018-06-22T10:17:12.378Z,67.74
2018-06-22T10:19:48.517Z,65.68
2018-06-22T10:22:27.440Z,65.97
2018-06-22T10:25:05.048Z,65.46
2018-06-22T10:27:50.324Z,67.95
2018-06-22T10:30:33.537Z,70.91
2018-06-22T10:33:07.358Z,71.99
2018-06-22T10:35:45.506Z,75.09
2018-06-22T10:41:12.180Z,74.90
2018-06-22T10:44:02.633Z,76.36
2018-06-22T10:46:44.163Z,74.21
2018-06-22T10:49:37.693Z,73.58
2018-06-22T10:55:21.050Z,69.09
2018-06-22T10:58:00.989Z,67.25
2018-06-22T11:00:34.870Z,69.09
2018-06-22T11:03:05.705Z,71.49
2018-06-22T11:05:50.614Z,73.29
2018-06-22T11:08:27.235Z,74.70
2018-06-22T11:11:04.261Z,74.00
2018-06-22T11:13:36.645Z,76.41
2018-06-22T11:16:11.486Z,75.02
2018-06-22T11:18:46.982Z,76.31
2018-06-22T11:24:19.497Z,77.80
2018-06-22T11:27:00.141Z,73.06
2018-06-22T11:29:51.687Z,71.97
2018-06-22T11:32:35.456Z,69.39
2018-06-22T11:35:12.667Z,72.25
2018-06-22T11:47:36.896Z,69.04
2018-06-22T11:50:58.695Z,71.17
2018-06-22T11:56:55.174Z,68.45
2018-06-22T11:59:46.406Z,68.68
2018-06-22T12:02:32.905Z,64.90
2018-06-22T12:05:12.136Z,63.15
2018-06-22T12:07:57.267Z,62.88
2018-06-22T12:13:18.965Z,65.61
2018-06-22T12:15:57.732Z,63.57
2018-06-22T12:22:00.458Z,62.89
2018-06-22T12:24:36.136Z,55.38
2018-06-22T12:27:08.046Z,59.50
2018-06-22T12:29:42.402Z,60.21
2018-06-22T12:32:13.963Z,56.41
2018-06-22T12:34:45.870Z,58.62
2018-06-22T12:37:18.288Z,58.55
2018-06-22T12:39:52.399Z,58.43
2018-06-22T12:42:26.439Z,59.55
2018-06-22T12:44:58.270Z,61.03
2018-06-22T12:47:27.352Z,59.71
2018-06-22T12:50:01.485Z,58.82
2018-06-22T12:52:33.395Z,61.10
2018-06-22T12:55:03.629Z,61.22
2018-06-22T12:57:35.674Z,61.89
2018-06-22T13:00:08.746Z,64.33
2018-06-22T13:02:42.575Z,63.41
2018-06-22T13:05:15.637Z,61.79
2018-06-22T13:07:45.016Z,61.35
2018-06-22T13:10:18.534Z,56.83
2018-06-22T13:12:48.670Z,58.78
2018-06-22T13:15:21.320Z,56.20
2018-06-22T13:17:52.445Z,57.95
2018-06-22T13:20:23.849Z,54.31
2018-06-22T13:22:55.782Z,55.03
2018-06-22T13:25:25.491Z,56.42
2018-06-22T13:27:57.436Z,57.42
2018-06-22T13:30:26.673Z,58.75
2018-06-22T13:32:57.773Z,59.34
2018-06-22T13:35:28.625Z,58.97
2018-06-22T13:38:01.007Z,58.16
2018-06-22T13:40:30.190Z,56.28
2018-06-22T13:43:02.162Z,56.18
2018-06-22T13:45:31.574Z,54.50
2018-06-22T13:48:01.633Z,53.41
2018-06-22T13:50:31.194Z,55.72
2018-06-22T13:53:02.746Z,56.27
2018-06-22T13:55:32.679Z,54.79
2018-06-22T13:58:02.559Z,55.03
2018-06-22T14:00:33.169Z,55.53
2018-06-22T14:03:03.493Z,53.58
2018-06-22T14:05:38.453Z,54.70
2018-06-22T14:08:08.973Z,56.71
2018-06-22T14:10:37.656Z,56.64
2018-06-22T14:13:06.710Z,56.26
2018-06-22T14:15:37.455Z,55.87
2018-06-22T14:18:10.385Z,56.01
2018-06-22T14:20:47.192Z,56.44
2018-06-22T14:23:17.669Z,60.85
2018-06-22T14:25:47.592Z,62.44
2018-06-22T14:28:16.944Z,62.48
2018-06-22T14:30:46.261Z,62.86
2018-06-22T14:33:15.588Z,64.81
2018-06-22T14:35:44.481Z,61.68
2018-06-22T14:38:13.321Z,60.30
2018-06-22T14:40:42.052Z,57.97
2018-06-22T14:43:12.884Z,55.82
2018-06-22T14:45:41.518Z,54.93
2018-06-22T14:48:10.720Z,54.24
2018-06-22T14:50:39.617Z,54.32
2018-06-22T14:54:11.161Z,53.98
2018-06-22T14:56:45.312Z,55.22
2018-06-22T14:59:20.038Z,55.95
2018-06-22T15:01:54.066Z,56.57
2018-06-22T15:04:28.182Z,56.93
2018-06-22T15:07:02.477Z,57.57
2018-06-22T15:09:32.109Z,58.29
2018-06-22T15:12:04.540Z,60.26
2018-06-22T15:14:33.288Z,61.64
2018-06-22T15:17:03.410Z,60.86
2018-06-22T15:19:32.338Z,62.45
2018-06-22T15:22:03.572Z,64.81
2018-06-22T15:24:32.299Z,65.64
2018-06-22T15:27:03.674Z,65.34
2018-06-22T15:29:32.557Z,63.64
2018-06-22T15:32:02.794Z,65.25
2018-06-22T15:34:36.679Z,64.20
2018-06-22T15:37:10.573Z,63.82
2018-06-22T15:39:44.635Z,63.34
2018-06-22T15:42:18.678Z,62.15
2018-06-22T15:44:52.587Z,61.17
2018-06-22T15:47:32.677Z,60.82
2018-06-22T15:50:06.652Z,59.66
2018-06-22T15:52:41.646Z,57.53
2018-06-22T15:55:12.114Z,57.71
2018-06-22T15:57:41.798Z,58.47
2018-06-22T16:00:12.704Z,58.45
2018-06-22T16:02:46.888Z,57.76
2018-06-22T16:05:16.194Z,56.88
2018-06-22T16:07:46.121Z,57.88
2018-06-22T16:10:15.420Z,59.09
2018-06-22T16:12:45.169Z,57.51
2018-06-22T16:15:19.772Z,58.52
2018-06-22T16:17:54.675Z,59.11
2018-06-22T16:20:29.002Z,58.34
2018-06-22T16:23:03.036Z,58.32
2018-06-22T16:25:36.922Z,60.09
2018-06-22T16:28:05.992Z,57.93
2018-06-22T16:30:34.842Z,60.35
2018-06-22T16:33:03.905Z,61.04
2018-06-22T16:35:33.114Z,62.17
2018-06-22T16:38:02.319Z,61.89
2018-06-22T16:40:31.775Z,62.57
2018-06-22T16:43:00.789Z,62.38
2018-06-22T16:45:29.408Z,62.47
2018-06-22T16:47:58.463Z,60.69
2018-06-22T16:50:27.285Z,60.24
2018-06-22T16:52:55.988Z,59.25
2018-06-22T16:55:26.888Z,59.14
2018-06-22T16:57:58.292Z,58.77
2018-06-22T17:00:27.135Z,58.33
2018-06-22T17:02:55.938Z,57.90
2018-06-22T17:05:24.638Z,58.77
2018-06-22T17:07:58.919Z,59.59
2018-06-22T17:10:32.900Z,58.88
2018-06-22T17:13:07.541Z,58.61
2018-06-22T17:15:47.696Z,58.49
2018-06-22T17:18:22.358Z,59.04
2018-06-22T17:20:50.974Z,60.92
2018-06-22T17:23:21.506Z,60.10
2018-06-22T17:25:58.359Z,60.91
2018-06-22T17:28:26.975Z,60.86
2018-06-22T17:30:56.243Z,60.74
2018-06-22T17:33:25.099Z,61.75
2018-06-22T17:38:31.169Z,61.13
2018-06-22T17:41:01.312Z,61.64
2018-06-22T17:43:36.976Z,63.29
2018-06-22T17:46:07.290Z,63.90
2018-06-22T17:48:36.701Z,64.91
2018-06-22T17:51:05.650Z,64.70
2018-06-22T17:53:34.445Z,64.35
2018-06-22T17:56:03.082Z,64.81
2018-06-22T17:58:31.833Z,65.09
2018-06-22T18:01:06.402Z,64.91
2018-06-22T18:03:40.466Z,64.98
2018-06-22T18:06:14.370Z,64.70
2018-06-22T18:08:45.374Z,65.27
2018-06-22T18:14:10.701Z,66.05
2018-06-22T18:16:54.477Z,64.38
2018-06-22T18:19:29.585Z,64.95
2018-06-22T18:22:12.459Z,64.54
2018-06-22T18:24:43.015Z,65.56
2018-06-22T18:27:16.646Z,66.04
2018-06-22T18:29:45.797Z,65.15
2018-06-22T18:32:19.167Z,66.04
2018-06-22T18:34:54.817Z,66.53
2018-06-22T18:40:23.746Z,65.25
2018-06-22T18:42:56.912Z,65.30
2018-06-22T18:45:47.702Z,64.94
2018-06-22T18:51:24.895Z,63.74
2018-06-22T18:54:10.735Z,64.02
2018-06-22T18:56:54.390Z,64.94
2018-06-22T18:59:30.991Z,65.04
2018-06-22T19:02:18.139Z,66.49
2018-06-22T19:04:50.489Z,67.83
2018-06-22T19:07:27.318Z,67.24
2018-06-22T19:09:56.454Z,67.84
2018-06-22T19:12:25.481Z,68.30
2018-06-22T19:14:57.782Z,68.69
2018-06-22T19:17:26.868Z,69.02
2018-06-22T19:19:56.512Z,68.67
2018-06-22T19:22:34.233Z,69.10
2018-06-22T19:25:10.099Z,68.38
2018-06-22T19:27:39.149Z,68.89
2018-06-22T19:30:11.502Z,68.07
2018-06-22T19:32:41.824Z,67.40
2018-06-22T19:35:18.944Z,68.38
2018-06-22T19:37:51.993Z,69.50
2018-06-22T19:40:21.010Z,68.40
2018-06-22T19:42:54.159Z,68.17
2018-06-22T19:47:35.090Z,69.80
2018-06-22T19:54:05.586Z,70.73
2018-06-22T19:56:34.401Z,71.64
2018-06-22T19:59:08.794Z,70.92
2018-06-22T20:01:38.577Z,69.16
2018-06-22T20:04:07.842Z,68.93
2018-06-22T20:06:37.701Z,67.96
2018-06-22T20:09:09.953Z,69.54
2018-06-22T20:11:42.031Z,68.92
2018-06-22T20:14:15.548Z,68.33
2018-06-22T20:16:44.088Z,68.19
2018-06-22T20:19:12.842Z,68.71
2018-06-22T20:21:41.549Z,68.16
2018-06-22T20:24:10.413Z,68.84
2018-06-22T20:26:39.994Z,69.31
2018-06-22T20:29:12.981Z,70.18
2018-06-22T20:31:42.986Z,70.33
2018-06-22T20:34:16.812Z,69.25
2018-06-22T20:37:53.109Z,69.76
2018-06-22T20:40:27.233Z,69.84
2018-06-22T20:42:59.840Z,69.42
2018-06-22T20:45:37.204Z,69.72
2018-06-22T20:48:12.540Z,69.62
2018-06-22T20:50:45.634Z,69.54
2018-06-22T20:53:14.629Z,69.51
2018-06-22T20:55:43.312Z,70.21
2018-06-22T20:58:11.922Z,70.83
2018-06-22T21:00:40.859Z,71.64
2018-06-22T21:03:09.647Z,71.54
2018-06-22T21:05:38.640Z,70.45
2018-06-22T21:08:08.578Z,70.27
2018-06-22T21:10:37.866Z,71.04
2018-06-22T21:13:07.572Z,69.96
2018-06-22T21:15:36.875Z,69.86
2018-06-22T21:18:08.407Z,71.46
2018-06-22T21:20:37.296Z,72.33
2018-06-22T21:23:06.386Z,71.56
2018-06-22T21:25:35.404Z,69.93
2018-06-22T21:30:13.802Z,69.67
2018-06-22T21:32:47.749Z,70.75
2018-06-22T21:35:21.839Z,70.41
2018-06-22T21:37:56.233Z,70.81
2018-06-22T21:40:32.371Z,71.61
2018-06-22T21:43:01.097Z,71.82
2018-06-22T21:45:33.082Z,70.21
2018-06-22T21:48:02.273Z,70.01
2018-06-22T21:50:34.001Z,68.99
2018-06-22T21:53:05.826Z,68.09
2018-06-22T21:55:47.462Z,68.59
2018-06-22T21:58:17.703Z,68.47
2018-06-22T22:00:49.287Z,67.77
2018-06-22T22:03:18.319Z,68.15
2018-06-22T22:05:50.370Z,68.18
2018-06-22T22:08:28.117Z,68.62
2018-06-22T22:11:03.204Z,68.58
2018-06-22T22:13:32.188Z,68.96
2018-06-22T22:16:01.309Z,68.81
2018-06-22T22:18:30.413Z,69.27
2018-06-22T22:20:59.270Z,68.74
2018-06-22T22:23:28.357Z,70.11
2018-06-22T22:26:00.816Z,70.44
2018-06-22T22:28:38.241Z,70.88
2018-06-22T22:31:08.675Z,69.73
2018-06-22T22:33:39.612Z,69.79
2018-06-22T22:36:14.459Z,69.27
2018-06-22T22:38:43.898Z,68.28
2018-06-22T22:41:13.772Z,68.10
2018-06-22T22:43:53.420Z,68.96
2018-06-22T22:49:16.494Z,69.19
2018-06-22T22:51:57.007Z,68.27
2018-06-22T22:54:48.235Z,68.14
2018-06-22T23:03:21.586Z,69.34
2018-06-22T23:09:11.123Z,70.10
2018-06-22T23:14:39.915Z,69.96
2018-06-22T23:19:57.173Z,71.00
2018-06-22T23:22:42.961Z,71.40
2018-06-22T23:25:12.680Z,71.30
2018-06-22T23:27:45.247Z,71.44
2018-06-22T23:30:15.684Z,70.38
2018-06-22T23:32:45.013Z,70.36
2018-06-22T23:35:14.899Z,71.52
2018-06-22T23:37:45.011Z,71.20
2018-06-22T23:40:13.884Z,70.99
2018-06-22T23:42:43.233Z,70.26
2018-06-22T23:45:14.864Z,70.08
2018-06-22T23:47:44.743Z,71.38
2018-06-22T23:50:13.447Z,70.41
2018-06-22T23:52:42.155Z,70.58
2018-06-22T23:55:10.869Z,71.54
2018-06-22T23:57:41.801Z,70.37
